Time;durP1;ratioP1;P1;durP2;ratioP2;P2;SDS_P1;SDS_P2;PMS_P1;PMS_P2;Temp;Humidity;BMP_temperature;BMP_pressure;BME280_temperature;BME280_humidity;BME280_pressure;Samples;Min_cycle;Max_cycle;Signal;HPM_P1;HPM_P2
2022/04/06 00:00:13;;;;;;;8.05;2.70;;;;;;;11.96;59.26;100329.13;5191760;28;20434;-41
2022/04/06 00:02:46;;;;;;;8.98;2.45;;;;;;;11.96;59.37;100335.25;5191768;28;20459;-41
2022/04/06 00:05:19;;;;;;;11.25;3.17;;;;;;;11.97;59.21;100322.81;5195811;28;20419;-40
2022/04/06 00:07:52;;;;;;;11.02;2.97;;;;;;;11.93;59.14;100317.06;5192613;28;20581;-43
2022/04/06 00:10:24;;;;;;;12.25;2.97;;;;;;;11.97;58.98;100321.00;5191448;28;20422;-42
2022/04/06 00:12:57;;;;;;;17.00;3.33;;;;;;;11.98;58.61;100321.81;5201153;28;20480;-41
2022/04/06 00:15:29;;;;;;;15.23;3.63;;;;;;;11.96;58.91;100323.84;5194164;28;20423;-41
2022/04/06 00:18:02;;;;;;;15.60;4.53;;;;;;;11.92;58.91;100323.34;5203855;28;20792;-41
2022/04/06 00:20:35;;;;;;;18.85;4.57;;;;;;;11.90;58.78;100330.63;5201437;28;20421;-42
2022/04/06 00:23:09;;;;;;;19.25;4.68;;;;;;;11.70;58.82;100285.19;5205375;28;20462;-41
2022/04/06 00:25:41;;;;;;;21.10;4.85;;;;;;;11.87;58.91;100316.91;5196240;28;20457;-42
2022/04/06 00:28:14;;;;;;;26.65;5.25;;;;;;;11.86;58.69;100312.59;5198539;28;20501;-41
2022/04/06 00:30:46;;;;;;;19.95;5.10;;;;;;;11.84;58.74;100307.47;5203136;28;20516;-41
2022/04/06 00:33:18;;;;;;;20.88;5.35;;;;;;;11.84;58.66;100312.75;5199833;28;20497;-40
2022/04/06 00:35:52;;;;;;;18.27;5.10;;;;;;;11.81;58.75;100299.88;5194100;28;20439;-40
2022/04/06 00:38:25;;;;;;;19.80;6.05;;;;;;;11.87;58.67;100299.22;5195819;28;20498;-40
2022/04/06 00:40:57;;;;;;;25.58;6.30;;;;;;;11.86;58.66;100305.50;5195390;28;20442;-40
2022/04/06 00:43:31;;;;;;;23.92;5.00;;;;;;;11.78;58.79;100286.97;5200346;28;20971;-40
2022/04/06 00:46:04;;;;;;;23.80;6.57;;;;;;;11.61;58.77;100256.28;5206025;28;20431;-40
2022/04/06 00:48:36;;;;;;;24.42;6.15;;;;;;;11.75;58.75;100274.91;5200021;28;20431;-41
2022/04/06 00:51:10;;;;;;;23.80;5.72;;;;;;;11.83;58.78;100291.75;5198899;28;20565;-40
2022/04/06 00:53:43;;;;;;;25.65;5.55;;;;;;;11.70;58.59;100287.81;5200284;28;20488;-44
2022/04/06 00:56:15;;;;;;;25.73;6.75;;;;;;;11.83;58.84;100284.66;5205650;28;20559;-41
2022/04/06 00:58:49;;;;;;;23.80;5.88;;;;;;;11.86;58.84;100286.16;5199763;28;20417;-42
2022/04/06 01:01:21;;;;;;;21.90;5.82;;;;;;;11.85;58.75;100272.09;5193476;28;20481;-42
2022/04/06 01:03:54;;;;;;;22.20;6.10;;;;;;;11.85;58.90;100273.91;5190324;28;20517;-41
2022/04/06 01:06:27;;;;;;;30.30;6.70;;;;;;;11.86;58.86;100275.56;5198253;28;20903;-41
2022/04/06 01:09:01;;;;;;;30.48;6.05;;;;;;;11.87;58.72;100272.75;5193820;28;20463;-43
2022/04/06 01:11:34;;;;;;;23.05;5.80;;;;;;;11.82;58.83;100259.19;5195551;28;20769;-41
2022/04/06 01:14:07;;;;;;;27.75;6.03;;;;;;;11.82;58.81;100269.75;5198473;28;20512;-41
2022/04/06 01:16:58;;;;;;;23.92;6.80;;;;;;;11.63;58.90;100241.06;5203019;28;20445;-42
2022/04/06 01:19:34;;;;;;;30.47;7.20;;;;;;;11.83;58.88;100271.44;5200959;28;20965;-43
2022/04/06 01:22:11;;;;;;;27.05;7.75;;;;;;;11.08;58.86;100145.75;5194013;28;20479;-45
2022/04/06 01:24:46;;;;;;;22.70;8.13;;;;;;;11.84;58.85;100262.47;5195119;28;20488;-41
2022/04/06 01:27:18;;;;;;;30.45;7.53;;;;;;;11.81;58.88;100262.81;5192559;28;20580;-40
2022/04/06 01:29:52;;;;;;;28.40;7.28;;;;;;;11.82;59.02;100264.47;5189344;28;20407;-41
2022/04/06 01:32:32;;;;;;;33.97;8.23;;;;;;;11.78;59.01;100249.94;5198650;28;20995;-41
2022/04/06 01:35:07;;;;;;;22.45;6.15;;;;;;;11.83;58.90;100257.34;5197651;28;20418;-41
2022/04/06 01:37:41;;;;;;;29.75;7.18;;;;;;;11.80;59.09;100263.84;5195858;28;20520;-43
2022/04/06 01:40:13;;;;;;;27.73;8.13;;;;;;;11.76;59.32;100260.69;5195547;28;20405;-42
2022/04/06 01:42:48;;;;;;;21.90;7.35;;;;;;;11.78;59.25;100268.47;5196114;28;20429;-41
2022/04/06 01:45:20;;;;;;;28.27;7.78;;;;;;;11.76;59.33;100270.44;5194900;28;20504;-38
2022/04/06 01:47:53;;;;;;;18.45;6.50;;;;;;;11.57;59.39;100253.16;5194407;28;20500;-40
2022/04/06 01:53:16;;;;;;;26.75;7.38;;;;;;;11.61;59.56;100257.09;5195672;28;20492;-40
2022/04/06 01:55:49;;;;;;;30.43;7.53;;;;;;;11.58;59.39;100246.03;5193077;28;20544;-40
2022/04/06 01:58:22;;;;;;;29.40;7.75;;;;;;;11.62;59.52;100258.78;5194579;28;20421;-41
2022/04/06 02:00:55;;;;;;;19.92;6.50;;;;;;;11.60;59.52;100250.16;5193567;28;20445;-43
2022/04/06 02:03:27;;;;;;;27.40;8.00;;;;;;;11.57;59.50;100249.69;5193417;28;20515;-40
2022/04/06 02:06:00;;;;;;;27.42;7.03;;;;;;;11.58;59.60;100251.34;5200518;28;20423;-42
2022/04/06 02:08:36;;;;;;;27.95;7.85;;;;;;;11.58;59.72;100261.91;5204746;28;20808;-40
2022/04/06 02:11:09;;;;;;;32.42;7.55;;;;;;;11.53;59.51;100233.34;5193777;28;20415;-46
2022/04/06 02:13:42;;;;;;;30.50;8.65;;;;;;;11.51;59.66;100246.72;5198231;28;20494;-50
2022/04/06 02:16:14;;;;;;;32.42;7.50;;;;;;;11.48;59.54;100241.78;5195263;28;20399;-41
2022/04/06 02:18:47;;;;;;;28.60;7.35;;;;;;;11.44;59.80;100237.84;5195296;28;20904;-43
2022/04/06 02:21:19;;;;;;;26.40;6.20;;;;;;;11.41;59.89;100234.72;5197543;28;20505;-40
2022/04/06 02:23:53;;;;;;;27.30;6.07;;;;;;;11.37;59.84;100221.00;5190902;28;20509;-39
2022/04/06 02:27:05;;;;;;;23.35;6.68;;;;;;;11.37;59.81;100221.00;5193198;28;20421;-41
2022/04/06 02:29:39;;;;;;;28.15;6.55;;;;;;;11.30;60.19;100227.94;5192272;28;20429;-41
2022/04/06 02:32:12;;;;;;;27.13;7.57;;;;;;;11.27;60.10;100228.28;5194507;28;20401;-41
2022/04/06 02:34:44;;;;;;;27.40;5.95;;;;;;;11.25;60.15;100219.72;5191655;28;20459;-40
2022/04/06 02:37:17;;;;;;;23.70;6.00;;;;;;;11.24;60.16;100208.31;5195984;28;20399;-49
2022/04/06 02:39:50;;;;;;;22.48;5.95;;;;;;;11.21;60.08;100227.16;5196057;28;20828;-41
2022/04/06 02:42:23;;;;;;;21.35;5.32;;;;;;;11.12;60.09;100190.31;5199234;28;20480;-42
2022/04/06 02:44:56;;;;;;;25.80;5.10;;;;;;;10.83;60.18;100174.03;5194719;28;20836;-42
2022/04/06 02:47:28;;;;;;;23.20;6.30;;;;;;;11.18;60.07;100203.72;5194617;28;20414;-41
2022/04/06 02:50:03;;;;;;;16.05;5.13;;;;;;;11.17;60.17;100203.88;5197912;28;20431;-41
2022/04/06 02:52:35;;;;;;;26.40;5.63;;;;;;;11.16;60.16;100220.72;5194318;28;20828;-41
2022/04/06 02:55:12;;;;;;;22.65;5.28;;;;;;;11.17;60.17;100203.88;5193417;28;20526;-42
2022/04/06 02:57:45;;;;;;;18.75;5.82;;;;;;;11.17;59.98;100201.22;5202652;28;20415;-41
2022/04/06 03:00:19;;;;;;;19.52;5.65;;;;;;;11.18;59.92;100194.94;5194181;28;20762;-41
2022/04/06 03:02:51;;;;;;;21.77;6.05;;;;;;;11.16;59.99;100189.00;5195331;28;20414;-41
2022/04/06 03:05:24;;;;;;;23.27;6.10;;;;;;;11.08;60.05;100177.44;5201587;28;20431;-42
2022/04/06 03:07:57;;;;;;;21.85;5.35;;;;;;;11.15;59.97;100190.84;5195595;28;20970;-41
2022/04/06 03:10:31;;;;;;;19.80;5.25;;;;;;;10.79;59.94;100140.22;5190568;28;20433;-43
2022/04/06 03:13:04;;;;;;;21.10;4.78;;;;;;;11.13;60.03;100189.34;5182101;28;20785;-42
2022/04/06 03:15:37;;;;;;;24.33;5.75;;;;;;;11.13;59.82;100182.25;5184500;28;20891;-42
2022/04/06 03:18:09;;;;;;;25.35;6.32;;;;;;;11.04;59.80;100165.59;5198849;28;20406;-41
2022/04/06 03:20:42;;;;;;;21.47;5.30;;;;;;;11.12;59.72;100177.13;5193545;28;21017;-42
2022/04/06 03:23:15;;;;;;;17.40;4.73;;;;;;;11.14;59.82;100177.78;5189067;28;20523;-42
2022/04/06 03:25:49;;;;;;;20.95;5.00;;;;;;;11.10;59.90;100174.66;5192078;28;20411;-41
2022/04/06 03:28:22;;;;;;;22.25;5.55;;;;;;;11.08;59.90;100177.44;5190390;28;20540;-43
2022/04/06 03:30:54;;;;;;;18.67;4.78;;;;;;;11.06;59.85;100160.97;5192490;28;20502;-41
2022/04/06 03:33:26;;;;;;;16.35;5.07;;;;;;;11.05;60.00;100161.94;5190388;28;20490;-42
2022/04/06 03:35:59;;;;;;;18.50;5.05;;;;;;;11.10;59.66;100171.19;5195605;28;20518;-41
2022/04/06 03:38:34;;;;;;;23.60;5.53;;;;;;;11.07;59.75;100170.53;5181620;28;20434;-41
2022/04/06 03:41:10;;;;;;;23.33;4.22;;;;;;;11.09;59.84;100162.44;5176849;28;20510;-41
2022/04/06 03:43:43;;;;;;;19.93;4.73;;;;;;;11.08;59.77;100161.59;5190027;28;20410;-41
2022/04/06 03:46:16;;;;;;;19.20;5.28;;;;;;;11.07;59.68;100148.56;5188014;28;20411;-41
2022/04/06 03:48:49;;;;;;;16.67;4.60;;;;;;;11.13;59.61;100153.19;5199462;28;20477;-41
2022/04/06 03:51:21;;;;;;;14.45;4.10;;;;;;;11.00;59.64;100137.84;5180955;28;20431;-44
2022/04/06 03:53:54;;;;;;;13.80;4.50;;;;;;;11.07;60.04;100157.31;5191138;28;20419;-44
2022/04/06 03:56:27;;;;;;;16.13;4.57;;;;;;;11.05;59.74;100154.00;5196034;28;20492;-41
2022/04/06 03:59:04;;;;;;;16.65;3.95;;;;;;;11.04;59.31;100154.19;5202714;28;20500;-40
2022/04/06 04:01:38;;;;;;;19.63;3.95;;;;;;;11.03;59.60;100140.16;5191463;28;20917;-41
2022/04/06 04:04:14;;;;;;;26.17;4.53;;;;;;;11.02;59.77;100133.22;5191537;28;20433;-41
2022/04/06 04:06:47;;;;;;;17.02;4.13;;;;;;;11.02;59.68;100135.84;5198134;28;20407;-41
2022/04/06 04:09:20;;;;;;;14.88;3.80;;;;;;;11.03;59.55;100132.22;5193057;28;20431;-40
2022/04/06 04:11:56;;;;;;;24.80;5.20;;;;;;;11.06;59.44;100128.44;5190828;28;20499;-40
2022/04/06 04:14:30;;;;;;;15.13;4.20;;;;;;;11.12;59.27;100134.84;5195453;28;20967;-40
2022/04/06 04:17:03;;;;;;;17.33;4.63;;;;;;;11.11;59.27;100127.91;5194216;28;20556;-40
2022/04/06 04:19:35;;;;;;;9.95;4.05;;;;;;;11.15;59.31;100123.91;5194281;28;20490;-40
2022/04/06 04:22:12;;;;;;;21.55;4.20;;;;;;;10.80;59.29;100091.66;5189183;28;20530;-40
2022/04/06 04:24:44;;;;;;;18.42;4.32;;;;;;;11.17;59.09;100109.53;5196518;28;20405;-42
2022/04/06 04:27:18;;;;;;;12.52;3.47;;;;;;;11.13;59.08;100110.88;5191063;28;20411;-43
2022/04/06 04:29:51;;;;;;;19.42;4.35;;;;;;;11.16;59.13;100118.47;5188668;28;20422;-39
2022/04/06 04:32:23;;;;;;;15.05;3.65;;;;;;;11.17;59.08;100114.00;5186124;28;20490;-41
2022/04/06 04:34:59;;;;;;;15.57;3.90;;;;;;;11.10;59.14;100094.56;5190877;28;20880;-41
2022/04/06 04:37:31;;;;;;;12.63;3.75;;;;;;;11.12;59.12;100109.25;5207289;28;20901;-40
2022/04/06 04:40:05;;;;;;;15.90;3.67;;;;;;;11.07;59.19;100104.47;5204155;28;20415;-40
2022/04/06 04:42:39;;;;;;;15.75;4.28;;;;;;;11.06;59.05;100097.53;5189490;28;20891;-40
2022/04/06 04:45:12;;;;;;;15.25;3.58;;;;;;;11.06;59.20;100100.19;5188516;28;20534;-40
2022/04/06 04:47:44;;;;;;;13.18;3.67;;;;;;;11.01;59.11;100097.22;5187544;28;20415;-40
2022/04/06 04:50:19;;;;;;;18.03;4.17;;;;;;;11.04;59.07;100107.44;5206157;28;20493;-41
2022/04/06 04:52:51;;;;;;;15.68;4.20;;;;;;;11.02;59.18;100096.22;5205170;28;20414;-43
2022/04/06 04:55:24;;;;;;;20.42;4.97;;;;;;;11.05;59.16;100101.16;5189307;28;20731;-40
2022/04/06 04:57:57;;;;;;;17.20;4.75;;;;;;;11.08;58.97;100097.34;5193515;28;20422;-41
2022/04/06 05:00:32;;;;;;;21.58;3.83;;;;;;;11.05;59.04;100098.50;5210835;28;20429;-43
2022/04/06 05:03:05;;;;;;;18.70;4.65;;;;;;;11.06;59.01;100089.63;5211118;28;20520;-46
2022/04/06 05:05:39;;;;;;;18.63;5.00;;;;;;;11.02;58.95;100069.78;5210936;28;20441;-41
2022/04/06 05:08:12;;;;;;;23.48;5.35;;;;;;;11.05;59.14;100076.56;5212350;28;20512;-40
2022/04/06 05:10:45;;;;;;;16.95;4.80;;;;;;;11.04;59.01;100075.75;5207585;28;20494;-42
2022/04/06 05:13:19;;;;;;;23.77;5.73;;;;;;;11.07;59.03;100080.69;5204304;28;20409;-40
2022/04/06 05:15:51;;;;;;;26.58;5.47;;;;;;;11.07;58.88;100074.56;5199110;28;20490;-42
2022/04/06 05:18:25;;;;;;;20.47;4.50;;;;;;;11.07;58.90;100064.81;5212307;28;20422;-40
2022/04/06 05:21:00;;;;;;;23.35;4.18;;;;;;;11.07;59.08;100058.72;5199995;28;20450;-40
2022/04/06 05:23:33;;;;;;;22.58;5.60;;;;;;;11.09;58.87;100059.38;5211761;28;20509;-40
2022/04/06 05:26:05;;;;;;;21.58;5.10;;;;;;;11.07;58.97;100070.13;5212310;28;20421;-40
2022/04/06 05:28:39;;;;;;;21.70;4.95;;;;;;;11.04;58.96;100074.91;5214238;28;20455;-41
2022/04/06 05:31:12;;;;;;;26.83;5.28;;;;;;;11.06;59.08;100072.94;5200341;28;20407;-44
2022/04/06 05:33:45;;;;;;;25.05;6.13;;;;;;;11.05;58.93;100077.38;5191773;28;20406;-40
2022/04/06 05:36:17;;;;;;;23.95;5.43;;;;;;;11.04;58.96;100075.75;5204200;28;20482;-42
2022/04/06 05:38:50;;;;;;;29.42;5.20;;;;;;;11.03;58.96;100082.03;5189634;28;20735;-42
2022/04/06 05:41:22;;;;;;;21.88;5.03;;;;;;;11.02;58.97;100067.16;5189436;28;20410;-40
2022/04/06 05:43:56;;;;;;;24.02;5.90;;;;;;;11.01;58.98;100065.50;5191122;28;20459;-41
2022/04/06 05:46:29;;;;;;;29.48;4.95;;;;;;;11.02;59.08;100056.59;5192858;28;20470;-41
2022/04/06 05:49:04;;;;;;;29.23;5.32;;;;;;;11.00;59.00;100068.34;5190565;28;20414;-40
2022/04/06 05:51:37;;;;;;;19.15;4.90;;;;;;;10.99;58.99;100059.56;5190847;28;20910;-40
2022/04/06 05:54:10;;;;;;;26.15;5.65;;;;;;;11.01;59.13;100065.50;5178616;28;20415;-40
2022/04/06 05:56:42;;;;;;;28.30;6.18;;;;;;;10.98;59.52;100065.84;5194537;28;20925;-41
2022/04/06 05:59:16;;;;;;;25.85;5.78;;;;;;;10.97;59.32;100058.94;5202029;28;20820;-43
2022/04/06 06:01:48;;;;;;;26.95;5.38;;;;;;;10.94;59.26;100054.00;5206037;28;20549;-43
2022/04/06 06:04:21;;;;;;;22.13;5.13;;;;;;;10.98;59.30;100060.56;5190493;28;20516;-42
2022/04/06 06:06:53;;;;;;;25.73;5.60;;;;;;;10.97;59.48;100064.22;5192450;28;20527;-44
2022/04/06 06:09:26;;;;;;;33.15;5.40;;;;;;;10.93;59.42;100057.63;5193413;28;20500;-40
2022/04/06 06:11:58;;;;;;;24.95;5.13;;;;;;;10.95;59.50;100066.19;5188827;28;21136;-43
2022/04/06 06:14:32;;;;;;;25.63;5.72;;;;;;;10.97;59.52;100068.69;5167788;28;20423;-48
2022/04/06 06:17:05;;;;;;;25.23;5.47;;;;;;;10.98;59.54;100065.03;5190153;28;20423;-41
2022/04/06 06:19:38;;;;;;;26.70;5.68;;;;;;;10.95;59.60;100055.63;5203462;28;20504;-42
2022/04/06 06:22:10;;;;;;;24.48;5.78;;;;;;;10.93;59.54;100049.72;5199299;28;20510;-42
2022/04/06 06:24:42;;;;;;;25.67;5.32;;;;;;;10.94;59.66;100054.00;5198371;28;20480;-41
2022/04/06 06:27:19;;;;;;;20.20;4.63;;;;;;;10.96;59.69;100051.16;5198639;28;20968;-44
2022/04/06 06:29:53;;;;;;;19.63;4.78;;;;;;;10.89;59.61;100035.19;5197166;28;20409;-40
2022/04/06 06:33:00;;;;;;;25.77;5.43;;;;;;;11.00;59.54;100053.31;5199654;28;20893;-41
2022/04/06 06:35:32;;;;;;;24.05;5.30;;;;;;;11.00;59.64;100042.75;5180817;28;20571;-42
2022/04/06 06:38:05;;;;;;;18.27;4.43;;;;;;;10.99;59.69;100049.00;5196137;28;20426;-41
2022/04/06 06:40:37;;;;;;;27.15;5.97;;;;;;;10.97;59.71;100048.38;5197869;28;20536;-40
2022/04/06 06:43:10;;;;;;;17.15;4.25;;;;;;;10.97;59.72;100048.38;5196558;28;20448;-40
2022/04/06 06:45:44;;;;;;;19.40;4.32;;;;;;;10.92;59.70;100042.75;5201641;28;20900;-40
2022/04/06 06:48:16;;;;;;;25.10;6.03;;;;;;;10.95;59.82;100046.88;5201926;28;20880;-41
2022/04/06 06:50:49;;;;;;;20.77;5.20;;;;;;;10.85;59.91;100033.88;5200174;28;20777;-41
2022/04/06 06:53:21;;;;;;;24.10;4.88;;;;;;;10.84;60.03;100037.53;5202604;28;20492;-41
2022/04/06 06:55:54;;;;;;;24.58;4.95;;;;;;;10.81;60.08;100037.88;5192551;28;20426;-42
2022/04/06 06:58:26;;;;;;;21.13;5.13;;;;;;;10.80;60.14;100025.63;5202658;28;20440;-41
2022/04/06 07:01:00;;;;;;;19.55;4.57;;;;;;;10.79;60.10;100035.38;5191695;28;20486;-44
2022/04/06 07:03:33;;;;;;;22.90;4.43;;;;;;;10.83;60.13;100035.88;5188130;28;20438;-41
2022/04/06 07:06:05;;;;;;;19.63;4.80;;;;;;;10.83;60.18;100038.50;5194066;28;20460;-41
2022/04/06 07:08:38;;;;;;;24.30;4.75;;;;;;;10.79;60.34;100034.56;5203115;28;20447;-42
2022/04/06 07:11:11;;;;;;;18.30;3.97;;;;;;;10.74;60.33;100048.28;5198722;28;20440;-43
2022/04/06 07:13:43;;;;;;;23.17;5.43;;;;;;;10.68;60.31;100035.75;5199030;28;20517;-41
2022/04/06 07:16:18;;;;;;;22.48;5.18;;;;;;;10.63;60.44;100032.00;5183794;28;20861;-41
2022/04/06 07:18:51;;;;;;;25.95;6.13;;;;;;;10.68;60.41;100043.66;5196785;28;20562;-42
2022/04/06 07:21:23;;;;;;;22.77;5.15;;;;;;;10.68;60.43;100034.94;5192293;28;20502;-43
2022/04/06 07:23:57;;;;;;;19.48;4.45;;;;;;;10.66;60.60;100040.38;5183145;28;20496;-44
2022/04/06 07:26:30;;;;;;;26.65;5.47;;;;;;;10.71;60.44;100021.38;5211814;28;20435;-43
2022/04/06 07:29:02;;;;;;;24.27;5.03;;;;;;;10.73;60.50;100029.97;5203037;28;20775;-43
2022/04/06 07:31:36;;;;;;;20.73;4.50;;;;;;;10.73;60.63;100020.22;5187124;28;20506;-41
2022/04/06 07:34:08;;;;;;;23.60;5.50;;;;;;;10.74;60.60;100013.13;5197694;28;20569;-41
2022/04/06 07:36:41;;;;;;;19.77;5.25;;;;;;;10.75;60.69;100017.44;5187112;28;20407;-42
2022/04/06 07:39:13;;;;;;;25.50;5.95;;;;;;;10.76;60.91;100019.06;5189795;28;20542;-43
2022/04/06 07:41:46;;;;;;;24.08;5.25;;;;;;;10.76;60.93;100004.03;5184343;28;20531;-45
2022/04/06 07:44:18;;;;;;;22.90;5.57;;;;;;;10.78;60.82;100001.25;5186790;28;20558;-41
2022/04/06 07:46:52;;;;;;;34.58;7.00;;;;;;;10.76;60.93;99993.47;5186717;28;20498;-40
2022/04/06 07:49:26;;;;;;;30.55;5.30;;;;;;;10.84;60.97;99984.69;5184860;28;20450;-42
2022/04/06 07:51:58;;;;;;;31.05;6.43;;;;;;;10.83;61.08;99983.84;5190192;28;20765;-41
2022/04/06 07:54:31;;;;;;;36.92;6.28;;;;;;;10.95;60.91;99997.50;5206850;28;20855;-40
2022/04/06 07:57:04;;;;;;;26.40;5.93;;;;;;;11.00;60.91;99979.31;5200183;28;20969;-41
2022/04/06 07:59:36;;;;;;;31.25;6.00;;;;;;;11.07;61.00;99974.97;5213067;28;20683;-42
2022/04/06 08:02:10;;;;;;;30.97;5.50;;;;;;;11.14;61.03;99971.66;5193853;28;20947;-44
2022/04/06 08:04:43;;;;;;;29.47;6.80;;;;;;;11.18;61.14;99986.16;5198176;28;20774;-45
2022/04/06 08:07:16;;;;;;;31.98;7.18;;;;;;;11.23;61.21;99973.25;5191335;28;20823;-41
2022/04/06 08:09:48;;;;;;;33.15;6.75;;;;;;;11.32;61.18;99982.75;5195755;28;20417;-44
2022/04/06 08:12:21;;;;;;;28.25;6.25;;;;;;;11.42;61.16;99999.22;5197223;28;20506;-46
2022/04/06 08:14:53;;;;;;;31.85;7.28;;;;;;;11.50;61.17;99991.22;5184105;28;20423;-42
2022/04/06 08:17:30;;;;;;;34.03;6.35;;;;;;;11.50;61.22;99985.94;5190709;28;20538;-41
2022/04/06 08:20:04;;;;;;;30.60;6.85;;;;;;;11.51;61.15;99982.28;5188432;28;20427;-42
2022/04/06 08:22:37;;;;;;;31.25;6.32;;;;;;;11.60;61.22;99971.66;5184136;28;20423;-43
2022/04/06 08:25:10;;;;;;;27.70;6.10;;;;;;;11.70;61.18;99982.81;5189525;28;20956;-41
2022/04/06 08:27:43;;;;;;;30.92;6.55;;;;;;;11.78;61.10;99962.41;5190681;28;20819;-42
2022/04/06 08:30:19;;;;;;;36.67;7.43;;;;;;;11.84;61.21;99973.28;5193138;28;20491;-46
2022/04/06 08:32:58;;;;;;;29.50;7.40;;;;;;;11.86;61.26;99958.91;5186330;28;20831;-45
2022/04/06 08:35:31;;;;;;;24.23;6.03;;;;;;;11.79;61.23;99952.63;5182351;28;20951;-44
2022/04/06 08:38:04;;;;;;;36.37;6.90;;;;;;;11.94;61.31;99961.47;5191166;28;20568;-43
2022/04/06 08:40:39;;;;;;;37.17;8.02;;;;;;;12.07;61.13;99955.53;5166193;28;20437;-46
2022/04/06 08:43:14;;;;;;;26.80;7.10;;;;;;;12.19;61.09;99958.56;5196770;28;20420;-42
2022/04/06 08:45:47;;;;;;;34.97;7.70;;;;;;;12.21;61.09;99961.88;5190620;28;20441;-44
2022/04/06 08:48:22;;;;;;;36.45;6.97;;;;;;;12.25;61.04;99946.44;5197291;28;20504;-43
2022/04/06 08:50:55;;;;;;;30.85;6.60;;;;;;;12.34;61.03;99956.75;5191493;28;20528;-41
2022/04/06 08:53:27;;;;;;;32.75;6.63;;;;;;;12.39;61.10;99950.91;5188838;28;20507;-44
2022/04/06 08:56:03;;;;;;;37.42;7.32;;;;;;;12.48;61.00;99941.03;5189145;28;20536;-41
2022/04/06 08:58:35;;;;;;;35.25;7.30;;;;;;;12.66;60.90;99949.41;5176841;28;20549;-42
2022/04/06 09:01:09;;;;;;;33.45;6.75;;;;;;;12.87;60.77;99944.16;5192237;28;20502;-42
2022/04/06 09:03:43;;;;;;;33.53;7.68;;;;;;;13.05;60.66;99957.00;5193487;28;20391;-45
2022/04/06 09:06:16;;;;;;;39.53;7.47;;;;;;;13.21;60.75;99966.56;5194464;28;20417;-49
2022/04/06 09:08:49;;;;;;;34.85;8.13;;;;;;;13.26;60.46;99918.31;5192646;28;20447;-42
2022/04/06 09:11:22;;;;;;;35.60;6.80;;;;;;;13.44;60.47;99920.50;5189752;28;20544;-40
2022/04/06 09:14:00;;;;;;;34.58;7.07;;;;;;;13.23;60.32;99916.00;5184559;28;20425;-43
2022/04/06 09:16:33;;;;;;;25.67;5.50;;;;;;;13.64;60.24;99932.09;5191064;28;20907;-43
2022/04/06 09:19:11;;;;;;;36.53;8.05;;;;;;;13.61;60.23;99928.00;5177767;28;20431;-43
2022/04/06 09:21:46;;;;;;;31.35;7.88;;;;;;;13.68;60.01;99924.56;5191296;28;20407;-42
2022/04/06 09:24:22;;;;;;;30.92;6.97;;;;;;;13.73;60.04;99930.94;5192171;28;20440;-43
2022/04/06 09:26:58;;;;;;;30.23;6.60;;;;;;;13.70;59.98;99928.69;5191800;28;20419;-42
2022/04/06 09:29:31;;;;;;;34.75;6.40;;;;;;;13.62;59.97;99923.50;5189696;28;22367;-41
2022/04/06 09:32:10;;;;;;;32.47;6.20;;;;;;;13.59;60.00;99921.22;5192545;28;20430;-42
2022/04/06 09:34:46;;;;;;;31.00;6.47;;;;;;;13.63;59.21;99925.16;5194569;28;20492;-41
2022/04/06 09:37:27;;;;;;;27.07;6.43;;;;;;;13.67;59.66;99912.31;5191032;28;20810;-43
2022/04/06 09:40:11;;;;;;;32.97;7.07;;;;;;;13.70;59.55;99915.41;5186174;28;20426;-42
2022/04/06 09:42:52;;;;;;;31.40;7.25;;;;;;;13.88;59.50;99920.25;5189711;28;20503;-46
2022/04/06 09:48:19;;;;;;;25.03;6.60;;;;;;;13.84;59.44;99933.09;5188262;28;20437;-46
2022/04/06 09:50:57;;;;;;;25.45;6.25;;;;;;;13.90;59.39;99923.50;5192344;28;20832;-40
2022/04/06 09:53:31;;;;;;;25.25;5.80;;;;;;;13.79;59.47;99910.78;5194040;28;20537;-46
2022/04/06 09:56:04;;;;;;;27.98;5.68;;;;;;;13.92;59.36;99918.03;5189994;28;20907;-41
2022/04/06 09:58:37;;;;;;;27.73;5.67;;;;;;;13.98;59.25;99918.06;5190762;28;20488;-47
2022/04/06 10:01:10;;;;;;;23.38;5.35;;;;;;;14.01;59.34;99914.19;5189150;28;20525;-44
2022/04/06 10:03:50;;;;;;;31.75;7.07;;;;;;;14.04;59.04;99897.88;5187801;28;20539;-45
2022/04/06 10:06:25;;;;;;;33.63;6.43;;;;;;;14.20;58.97;99912.66;5185083;28;20425;-46
2022/04/06 10:08:57;;;;;;;24.85;6.75;;;;;;;14.26;58.83;99903.91;5192909;28;20429;-40
2022/04/06 10:11:30;;;;;;;31.83;6.03;;;;;;;14.29;58.74;99900.88;5187402;28;20425;-43
2022/04/06 10:14:06;;;;;;;28.90;5.88;;;;;;;14.26;58.83;99923.31;5194138;28;20486;-42
2022/04/06 10:16:40;;;;;;;28.17;6.32;;;;;;;14.03;58.86;99867.06;5196039;28;20474;-43
2022/04/06 10:19:15;;;;;;;32.05;5.45;;;;;;;14.15;58.75;99905.28;5194164;28;20429;-45
2022/04/06 10:21:55;;;;;;;26.65;6.15;;;;;;;14.06;58.83;99898.50;5208114;28;20953;-41
2022/04/06 10:24:40;;;;;;;27.15;5.55;;;;;;;13.87;58.87;99893.88;5195584;28;20527;-45
2022/04/06 10:27:24;;;;;;;26.92;5.57;;;;;;;13.83;59.07;99881.00;5196735;28;20828;-43
2022/04/06 10:30:13;;;;;;;25.67;6.35;;;;;;;13.88;58.76;99890.22;5199242;28;20449;-42
2022/04/06 10:32:58;;;;;;;26.33;6.15;;;;;;;13.95;58.85;99899.06;5200616;28;20419;-44
2022/04/06 10:35:33;;;;;;;38.75;7.97;;;;;;;13.96;58.71;99887.41;5193811;28;20753;-43
2022/04/06 10:38:19;;;;;;;29.00;6.68;;;;;;;14.19;58.51;99892.47;5205277;28;20424;-43
2022/04/06 10:41:00;;;;;;;25.20;6.88;;;;;;;14.34;58.43;99894.97;5188098;28;20418;-40
2022/04/06 10:43:52;;;;;;;22.63;6.20;;;;;;;14.38;58.46;99920.13;5186992;28;20453;-45
2022/04/06 10:46:39;;;;;;;27.08;6.03;;;;;;;14.41;58.36;99888.66;5186300;28;20399;-42
2022/04/06 10:49:15;;;;;;;25.00;6.80;;;;;;;14.44;58.44;99887.47;5187936;28;20430;-43
2022/04/06 10:51:56;;;;;;;25.35;5.90;;;;;;;14.55;58.42;99872.81;5193041;28;20909;-41
2022/04/06 10:54:43;;;;;;;24.95;5.47;;;;;;;14.56;58.34;99888.56;5181931;28;20411;-41
2022/04/06 10:57:16;;;;;;;27.53;6.13;;;;;;;14.59;58.43;99871.41;5189478;28;20422;-43
2022/04/06 11:00:15;;;;;;;29.07;6.60;;;;;;;14.58;58.45;99878.53;5189328;28;20527;-42
2022/04/06 11:02:50;;;;;;;25.53;5.67;;;;;;;14.52;58.34;99858.91;5184540;28;20407;-42
2022/04/06 11:05:47;;;;;;;26.38;5.13;;;;;;;14.56;58.42;99859.34;5181471;28;20423;-45
2022/04/06 11:11:47;;;;;;;24.75;6.10;;;;;;;14.55;58.29;99868.31;5186856;28;20489;-43
2022/04/06 11:14:29;;;;;;;23.83;5.97;;;;;;;14.58;58.17;99864.44;5186733;28;20429;-43
2022/04/06 11:17:02;;;;;;;24.30;5.10;;;;;;;14.60;58.13;99871.19;5184728;28;20423;-44
2022/04/06 11:19:48;;;;;;;27.95;6.53;;;;;;;14.58;58.19;99865.25;5195089;28;20461;-44
2022/04/06 11:22:23;;;;;;;18.23;4.68;;;;;;;14.55;58.11;99857.69;5198761;28;20479;-42
2022/04/06 11:24:57;;;;;;;23.52;5.28;;;;;;;14.52;58.30;99844.78;5177211;28;20413;-43
2022/04/06 11:27:34;;;;;;;24.08;5.25;;;;;;;14.48;58.04;99844.34;5196884;28;20463;-43
2022/04/06 11:30:09;;;;;;;31.23;6.07;;;;;;;14.50;58.18;99846.81;5185902;28;20496;-42
2022/04/06 11:32:44;;;;;;;22.23;5.68;;;;;;;14.54;58.03;99837.44;5184100;28;20902;-41
2022/04/06 11:35:17;;;;;;;28.13;5.73;;;;;;;14.63;57.95;99846.06;5185018;28;20895;-44
2022/04/06 11:37:51;;;;;;;30.20;5.75;;;;;;;14.65;57.92;99820.94;5189571;28;20417;-42
2022/04/06 11:40:25;;;;;;;26.08;6.32;;;;;;;14.67;57.92;99841.97;5197662;28;20413;-42
2022/04/06 11:43:05;;;;;;;24.85;6.22;;;;;;;14.65;58.02;99825.44;5188594;28;20419;-42
2022/04/06 11:45:44;;;;;;;21.00;5.63;;;;;;;14.51;58.01;99821.91;5184909;28;20956;-41
2022/04/06 11:48:16;;;;;;;25.35;5.15;;;;;;;14.56;58.04;99840.75;5184238;28;20427;-42
2022/04/06 11:50:49;;;;;;;26.95;5.28;;;;;;;14.46;58.09;99821.66;5181896;28;20540;-44
2022/04/06 11:53:24;;;;;;;18.70;4.40;;;;;;;14.42;58.08;99828.38;5188104;28;20413;-43
2022/04/06 11:56:34;;;;;;;26.33;5.57;;;;;;;14.41;58.11;99824.91;5184852;28;20433;-42
2022/04/06 11:59:16;;;;;;;22.50;5.32;;;;;;;14.34;58.04;99831.22;5188752;28;21064;-42
2022/04/06 12:01:49;;;;;;;17.42;4.45;;;;;;;14.17;58.15;99823.59;5193426;28;20920;-41